sensor_id;sensor_type;location;lat;lon;timestamp;pressure;altitude;pressure_sealevel;temperature
37414;BMP280;23279;46.472;30.760;2023-05-10T00:01:27;79106.53;;;-146.33
37414;BMP280;23279;46.472;30.760;2023-05-10T00:03:53;79104.47;;;-146.33
37414;BMP280;23279;46.472;30.760;2023-05-10T00:06:18;79122.81;;;-146.33
37414;BMP280;23279;46.472;30.760;2023-05-10T00:08:44;79122.81;;;-146.33
37414;BMP280;23279;46.472;30.760;2023-05-10T00:11:10;79126.88;;;-146.33
37414;BMP280;23279;46.472;30.760;2023-05-10T00:13:35;79130.94;;;-146.33
37414;BMP280;23279;46.472;30.760;2023-05-10T00:16:01;79130.94;;;-146.33
37414;BMP280;23279;46.472;30.760;2023-05-10T00:18:26;79147.22;;;-146.33
37414;BMP280;23279;46.472;30.760;2023-05-10T00:20:52;79137.06;;;-146.33
37414;BMP280;23279;46.472;30.760;2023-05-10T00:23:17;79130.94;;;-146.33
37414;BMP280;23279;46.472;30.760;2023-05-10T00:25:43;79143.16;;;-146.33
37414;BMP280;23279;46.472;30.760;2023-05-10T00:28:08;79147.22;;;-146.33
37414;BMP280;23279;46.472;30.760;2023-05-10T00:30:33;79145.19;;;-146.33
37414;BMP280;23279;46.472;30.760;2023-05-10T00:32:59;79159.44;;;-146.33
37414;BMP280;23279;46.472;30.760;2023-05-10T00:35:24;79153.34;;;-146.33
37414;BMP280;23279;46.472;30.760;2023-05-10T00:37:50;79149.25;;;-146.33
37414;BMP280;23279;46.472;30.760;2023-05-10T00:40:15;79147.22;;;-146.33
37414;BMP280;23279;46.472;30.760;2023-05-10T00:42:41;79151.31;;;-146.33
37414;BMP280;23279;46.472;30.760;2023-05-10T00:45:06;79135.00;;;-146.33
37414;BMP280;23279;46.472;30.760;2023-05-10T00:47:32;79124.84;;;-146.33
37414;BMP280;23279;46.472;30.760;2023-05-10T00:49:58;79132.97;;;-146.33
37414;BMP280;23279;46.472;30.760;2023-05-10T00:52:26;79130.94;;;-146.33
37414;BMP280;23279;46.472;30.760;2023-05-10T00:54:52;79139.09;;;-146.33
37414;BMP280;23279;46.472;30.760;2023-05-10T00:57:17;79141.13;;;-146.33
37414;BMP280;23279;46.472;30.760;2023-05-10T00:59:43;79143.16;;;-146.33
37414;BMP280;23279;46.472;30.760;2023-05-10T01:02:09;79132.97;;;-146.33
37414;BMP280;23279;46.472;30.760;2023-05-10T01:04:35;79137.06;;;-146.33
37414;BMP280;23279;46.472;30.760;2023-05-10T01:07:00;79132.97;;;-146.33
37414;BMP280;23279;46.472;30.760;2023-05-10T01:09:27;79124.84;;;-146.33
37414;BMP280;23279;46.472;30.760;2023-05-10T01:11:53;79114.66;;;-146.33
37414;BMP280;23279;46.472;30.760;2023-05-10T01:14:19;79122.81;;;-146.33
37414;BMP280;23279;46.472;30.760;2023-05-10T01:16:45;79120.75;;;-146.33
37414;BMP280;23279;46.472;30.760;2023-05-10T01:19:17;79126.88;;;-146.33
37414;BMP280;23279;46.472;30.760;2023-05-10T01:30:08;79159.44;;;-146.33
37414;BMP280;23279;46.472;30.760;2023-05-10T01:37:50;79155.38;;;-146.33
37414;BMP280;23279;46.472;30.760;2023-05-10T01:40:25;79139.09;;;-146.33
37414;BMP280;23279;46.472;30.760;2023-05-10T01:42:54;79139.09;;;-146.33
37414;BMP280;23279;46.472;30.760;2023-05-10T01:47:57;79116.69;;;-146.33
37414;BMP280;23279;46.472;30.760;2023-05-10T01:50:27;79112.63;;;-146.33
37414;BMP280;23279;46.472;30.760;2023-05-10T01:52:56;79114.66;;;-146.33
37414;BMP280;23279;46.472;30.760;2023-05-10T01:55:25;79112.63;;;-146.33
37414;BMP280;23279;46.472;30.760;2023-05-10T01:57:55;79106.53;;;-146.33
37414;BMP280;23279;46.472;30.760;2023-05-10T02:00:23;79110.59;;;-146.33
37414;BMP280;23279;46.472;30.760;2023-05-10T02:02:49;79102.44;;;-146.33
37414;BMP280;23279;46.472;30.760;2023-05-10T02:05:16;79104.47;;;-146.33
37414;BMP280;23279;46.472;30.760;2023-05-10T02:07:42;79110.59;;;-146.33
37414;BMP280;23279;46.472;30.760;2023-05-10T02:10:09;79106.53;;;-146.33
37414;BMP280;23279;46.472;30.760;2023-05-10T02:12:37;79100.41;;;-146.33
37414;BMP280;23279;46.472;30.760;2023-05-10T02:15:05;79094.31;;;-146.33
37414;BMP280;23279;46.472;30.760;2023-05-10T02:17:32;79104.47;;;-146.33
37414;BMP280;23279;46.472;30.760;2023-05-10T02:19:59;79104.47;;;-146.33
37414;BMP280;23279;46.472;30.760;2023-05-10T02:22:27;79110.59;;;-146.33
37414;BMP280;23279;46.472;30.760;2023-05-10T02:24:57;79110.59;;;-146.33
37414;BMP280;23279;46.472;30.760;2023-05-10T02:27:24;79110.59;;;-146.33
37414;BMP280;23279;46.472;30.760;2023-05-10T02:29:51;79118.72;;;-146.33
37414;BMP280;23279;46.472;30.760;2023-05-10T02:32:18;79118.72;;;-146.33
37414;BMP280;23279;46.472;30.760;2023-05-10T02:34:45;79122.81;;;-146.33
37414;BMP280;23279;46.472;30.760;2023-05-10T02:37:15;79118.72;;;-146.33
37414;BMP280;23279;46.472;30.760;2023-05-10T02:39:42;79122.81;;;-146.33
37414;BMP280;23279;46.472;30.760;2023-05-10T02:42:15;79122.81;;;-146.33
37414;BMP280;23279;46.472;30.760;2023-05-10T02:44:42;79110.59;;;-146.33
37414;BMP280;23279;46.472;30.760;2023-05-10T02:47:08;79110.59;;;-146.33
37414;BMP280;23279;46.472;30.760;2023-05-10T02:49:34;79104.47;;;-146.33
37414;BMP280;23279;46.472;30.760;2023-05-10T02:52:01;79098.38;;;-146.33
37414;BMP280;23279;46.472;30.760;2023-05-10T02:54:31;79102.44;;;-146.33
37414;BMP280;23279;46.472;30.760;2023-05-10T02:57:00;79098.38;;;-146.33
37414;BMP280;23279;46.472;30.760;2023-05-10T02:59:26;79084.13;;;-146.33
37414;BMP280;23279;46.472;30.760;2023-05-10T03:01:52;79084.13;;;-146.33
37414;BMP280;23279;46.472;30.760;2023-05-10T03:04:18;79071.91;;;-146.33
37414;BMP280;23279;46.472;30.760;2023-05-10T03:06:44;79069.88;;;-146.33
37414;BMP280;23279;46.472;30.760;2023-05-10T03:09:10;79080.06;;;-146.33
37414;BMP280;23279;46.472;30.760;2023-05-10T03:11:59;79082.09;;;-146.33
37414;BMP280;23279;46.472;30.760;2023-05-10T03:19:39;79082.09;;;-146.33
37414;BMP280;23279;46.472;30.760;2023-05-10T03:22:06;79059.69;;;-146.33
37414;BMP280;23279;46.472;30.760;2023-05-10T03:24:35;79090.22;;;-146.33
37414;BMP280;23279;46.472;30.760;2023-05-10T03:27:02;79071.91;;;-146.33
37414;BMP280;23279;46.472;30.760;2023-05-10T03:29:30;79067.84;;;-146.33
37414;BMP280;23279;46.472;30.760;2023-05-10T03:31:58;79065.81;;;-146.33
37414;BMP280;23279;46.472;30.760;2023-05-10T03:34:25;79090.22;;;-146.33
37414;BMP280;23279;46.472;30.760;2023-05-10T03:36:50;79084.13;;;-146.33
37414;BMP280;23279;46.472;30.760;2023-05-10T03:39:16;79098.38;;;-146.33
37414;BMP280;23279;46.472;30.760;2023-05-10T03:41:41;79086.16;;;-146.33
37414;BMP280;23279;46.472;30.760;2023-05-10T03:44:07;79098.38;;;-146.33
37414;BMP280;23279;46.472;30.760;2023-05-10T03:46:32;79094.31;;;-146.33
37414;BMP280;23279;46.472;30.760;2023-05-10T03:48:58;79114.66;;;-146.33
37414;BMP280;23279;46.472;30.760;2023-05-10T03:51:23;79147.22;;;-146.33
37414;BMP280;23279;46.472;30.760;2023-05-10T03:53:53;79147.22;;;-146.33
37414;BMP280;23279;46.472;30.760;2023-05-10T03:56:18;79151.31;;;-146.33
37414;BMP280;23279;46.472;30.760;2023-05-10T03:58:44;79137.06;;;-146.33
37414;BMP280;23279;46.472;30.760;2023-05-10T04:01:09;79130.94;;;-146.33
37414;BMP280;23279;46.472;30.760;2023-05-10T04:03:35;79128.91;;;-146.33
37414;BMP280;23279;46.472;30.760;2023-05-10T04:06:01;79124.84;;;-146.33
37414;BMP280;23279;46.472;30.760;2023-05-10T04:08:27;79110.59;;;-146.33
37414;BMP280;23279;46.472;30.760;2023-05-10T04:10:53;79116.69;;;-146.33
37414;BMP280;23279;46.472;30.760;2023-05-10T04:13:18;79126.88;;;-146.33
37414;BMP280;23279;46.472;30.760;2023-05-10T04:15:44;79110.59;;;-146.33
37414;BMP280;23279;46.472;30.760;2023-05-10T04:18:10;79102.44;;;-146.33
37414;BMP280;23279;46.472;30.760;2023-05-10T04:20:35;79098.38;;;-146.33
37414;BMP280;23279;46.472;30.760;2023-05-10T04:23:01;79065.81;;;-146.33
37414;BMP280;23279;46.472;30.760;2023-05-10T04:25:26;79059.69;;;-146.33
37414;BMP280;23279;46.472;30.760;2023-05-10T04:27:51;79051.56;;;-146.33
37414;BMP280;23279;46.472;30.760;2023-05-10T04:30:17;79039.34;;;-146.33
37414;BMP280;23279;46.472;30.760;2023-05-10T04:32:42;79031.19;;;-146.33
37414;BMP280;23279;46.472;30.760;2023-05-10T04:35:08;79055.63;;;-146.33
37414;BMP280;23279;46.472;30.760;2023-05-10T04:37:35;79047.47;;;-146.33
37414;BMP280;23279;46.472;30.760;2023-05-10T04:40:01;79057.66;;;-146.33
37414;BMP280;23279;46.472;30.760;2023-05-10T04:42:28;79049.53;;;-146.33
37414;BMP280;23279;46.472;30.760;2023-05-10T04:44:54;79049.53;;;-146.33
37414;BMP280;23279;46.472;30.760;2023-05-10T04:47:19;79053.59;;;-146.33
37414;BMP280;23279;46.472;30.760;2023-05-10T04:49:45;79090.22;;;-146.33
37414;BMP280;23279;46.472;30.760;2023-05-10T04:52:10;79092.28;;;-146.33
37414;BMP280;23279;46.472;30.760;2023-05-10T04:54:36;79086.16;;;-146.33
37414;BMP280;23279;46.472;30.760;2023-05-10T04:57:02;79080.06;;;-146.33
37414;BMP280;23279;46.472;30.760;2023-05-10T04:59:27;79078.03;;;-146.33
37414;BMP280;23279;46.472;30.760;2023-05-10T05:01:52;79061.72;;;-146.33
37414;BMP280;23279;46.472;30.760;2023-05-10T05:04:18;79067.84;;;-146.33
37414;BMP280;23279;46.472;30.760;2023-05-10T05:06:43;79080.06;;;-146.33
37414;BMP280;23279;46.472;30.760;2023-05-10T05:09:08;79057.66;;;-146.33
37414;BMP280;23279;46.472;30.760;2023-05-10T05:11:35;79025.09;;;-146.33
37414;BMP280;23279;46.472;30.760;2023-05-10T05:14:00;78986.41;;;-146.33
37414;BMP280;23279;46.472;30.760;2023-05-10T05:16:26;78984.38;;;-146.33
37414;BMP280;23279;46.472;30.760;2023-05-10T05:18:51;79016.94;;;-146.33
37414;BMP280;23279;46.472;30.760;2023-05-10T05:21:18;79039.34;;;-146.33
37414;BMP280;23279;46.472;30.760;2023-05-10T05:23:44;79000.66;;;-146.33
37414;BMP280;23279;46.472;30.760;2023-05-10T05:26:10;79012.88;;;-146.33
37414;BMP280;23279;46.472;30.760;2023-05-10T05:28:36;78992.53;;;-146.33
37414;BMP280;23279;46.472;30.760;2023-05-10T05:31:03;78953.84;;;-146.33
37414;BMP280;23279;46.472;30.760;2023-05-10T05:33:29;78915.16;;;-146.33
37414;BMP280;23279;46.472;30.760;2023-05-10T05:35:54;78927.38;;;-146.33
37414;BMP280;23279;46.472;30.760;2023-05-10T05:38:20;78943.66;;;-146.33
37414;BMP280;23279;46.472;30.760;2023-05-10T05:40:45;78955.88;;;-146.33
37414;BMP280;23279;46.472;30.760;2023-05-10T05:43:11;78968.09;;;-146.33
37414;BMP280;23279;46.472;30.760;2023-05-10T05:45:36;78984.38;;;-146.33
37414;BMP280;23279;46.472;30.760;2023-05-10T05:48:01;78984.38;;;-146.33
37414;BMP280;23279;46.472;30.760;2023-05-10T05:50:27;78998.63;;;-146.33
37414;BMP280;23279;46.472;30.760;2023-05-10T05:52:52;78996.59;;;-146.33
37414;BMP280;23279;46.472;30.760;2023-05-10T05:55:18;78964.03;;;-146.33
37414;BMP280;23279;46.472;30.760;2023-05-10T05:57:43;78974.19;;;-146.33
37414;BMP280;23279;46.472;30.760;2023-05-10T06:00:08;78984.38;;;-146.33
37414;BMP280;23279;46.472;30.760;2023-05-10T06:02:34;78972.16;;;-146.33
37414;BMP280;23279;46.472;30.760;2023-05-10T06:05:00;78957.91;;;-146.33
37414;BMP280;23279;46.472;30.760;2023-05-10T06:07:25;78941.63;;;-146.33
37414;BMP280;23279;46.472;30.760;2023-05-10T06:09:50;78947.75;;;-146.33
37414;BMP280;23279;46.472;30.760;2023-05-10T06:12:16;78923.31;;;-146.33
37414;BMP280;23279;46.472;30.760;2023-05-10T06:14:41;78951.81;;;-146.33
37414;BMP280;23279;46.472;30.760;2023-05-10T06:17:07;78947.75;;;-146.33
37414;BMP280;23279;46.472;30.760;2023-05-10T06:19:32;78941.63;;;-146.33
37414;BMP280;23279;46.472;30.760;2023-05-10T06:21:58;78951.81;;;-146.33
37414;BMP280;23279;46.472;30.760;2023-05-10T06:24:23;78933.50;;;-146.33
37414;BMP280;23279;46.472;30.760;2023-05-10T06:26:48;78894.81;;;-146.33
37414;BMP280;23279;46.472;30.760;2023-05-10T06:29:15;78862.25;;;-146.33
37414;BMP280;23279;46.472;30.760;2023-05-10T06:31:40;78833.75;;;-146.33
37414;BMP280;23279;46.472;30.760;2023-05-10T06:34:06;78813.41;;;-146.33
37414;BMP280;23279;46.472;30.760;2023-05-10T06:36:33;78764.53;;;-146.33
37414;BMP280;23279;46.472;30.760;2023-05-10T06:38:58;78736.03;;;-146.33
37414;BMP280;23279;46.472;30.760;2023-05-10T06:41:24;78705.50;;;-146.33
37414;BMP280;23279;46.472;30.760;2023-05-10T06:43:49;78681.09;;;-146.33
37414;BMP280;23279;46.472;30.760;2023-05-10T06:46:14;78695.34;;;-146.33
37414;BMP280;23279;46.472;30.760;2023-05-10T06:48:40;78707.56;;;-146.33
37414;BMP280;23279;46.472;30.760;2023-05-10T06:51:05;78685.16;;;-146.33
37414;BMP280;23279;46.472;30.760;2023-05-10T06:53:31;78695.34;;;-146.33
37414;BMP280;23279;46.472;30.760;2023-05-10T06:55:56;78699.41;;;-146.33
37414;BMP280;23279;46.472;30.760;2023-05-10T06:58:21;78666.84;;;-146.33
37414;BMP280;23279;46.472;30.760;2023-05-10T07:00:47;78626.13;;;-146.33
37414;BMP280;23279;46.472;30.760;2023-05-10T07:03:12;78634.28;;;-146.33
37414;BMP280;23279;46.472;30.760;2023-05-10T07:05:38;78605.78;;;-146.33
37414;BMP280;23279;46.472;30.760;2023-05-10T07:08:03;78630.22;;;-146.33
37414;BMP280;23279;46.472;30.760;2023-05-10T07:10:29;78620.03;;;-146.33
37414;BMP280;23279;46.472;30.760;2023-05-10T07:12:55;78622.06;;;-146.33
37414;BMP280;23279;46.472;30.760;2023-05-10T07:15:23;78622.06;;;-146.33
37414;BMP280;23279;46.472;30.760;2023-05-10T07:17:48;78613.91;;;-146.33
37414;BMP280;23279;46.472;30.760;2023-05-10T07:20:14;78622.06;;;-146.33
37414;BMP280;23279;46.472;30.760;2023-05-10T07:22:39;78609.84;;;-146.33
37414;BMP280;23279;46.472;30.760;2023-05-10T07:25:05;78636.31;;;-146.33
37414;BMP280;23279;46.472;30.760;2023-05-10T07:27:31;78628.16;;;-146.33
37414;BMP280;23279;46.472;30.760;2023-05-10T07:29:56;78628.16;;;-146.33
37414;BMP280;23279;46.472;30.760;2023-05-10T07:32:22;78597.63;;;-146.33
37414;BMP280;23279;46.472;30.760;2023-05-10T07:34:47;78583.41;;;-146.33
37414;BMP280;23279;46.472;30.760;2023-05-10T07:37:12;78556.94;;;-146.33
37414;BMP280;23279;46.472;30.760;2023-05-10T07:39:38;78542.69;;;-146.33
37414;BMP280;23279;46.472;30.760;2023-05-10T07:42:03;78591.53;;;-146.33
37414;BMP280;23279;46.472;30.760;2023-05-10T07:44:30;78630.22;;;-146.33
37414;BMP280;23279;46.472;30.760;2023-05-10T07:46:55;78650.56;;;-146.33
37414;BMP280;23279;46.472;30.760;2023-05-10T07:49:21;78624.09;;;-146.33
37414;BMP280;23279;46.472;30.760;2023-05-10T07:51:46;78640.38;;;-146.33
37414;BMP280;23279;46.472;30.760;2023-05-10T07:54:12;78640.38;;;-146.33
37414;BMP280;23279;46.472;30.760;2023-05-10T07:56:38;78638.34;;;-146.33
37414;BMP280;23279;46.472;30.760;2023-05-10T07:59:04;78620.03;;;-146.33
37414;BMP280;23279;46.472;30.760;2023-05-10T08:01:33;78611.88;;;-146.33
37414;BMP280;23279;46.472;30.760;2023-05-10T08:04:00;78601.72;;;-146.33
37414;BMP280;23279;46.472;30.760;2023-05-10T08:06:25;78589.50;;;-146.33
37414;BMP280;23279;46.472;30.760;2023-05-10T08:08:55;78569.16;;;-146.33
37414;BMP280;23279;46.472;30.760;2023-05-10T08:11:21;78544.72;;;-146.33
37414;BMP280;23279;46.472;30.760;2023-05-10T08:13:48;78544.72;;;-146.33
37414;BMP280;23279;46.472;30.760;2023-05-10T08:16:14;78595.59;;;-146.33
37414;BMP280;23279;46.472;30.760;2023-05-10T08:18:40;78603.75;;;-146.33
37414;BMP280;23279;46.472;30.760;2023-05-10T08:21:05;78595.59;;;-146.33
37414;BMP280;23279;46.472;30.760;2023-05-10T08:23:31;78589.50;;;-146.33
37414;BMP280;23279;46.472;30.760;2023-05-10T08:25:57;78605.78;;;-146.33
37414;BMP280;23279;46.472;30.760;2023-05-10T08:28:22;78540.66;;;-146.33
37414;BMP280;23279;46.472;30.760;2023-05-10T08:30:49;78573.22;;;-146.33
37414;BMP280;23279;46.472;30.760;2023-05-10T08:33:14;78581.34;;;-146.33
37414;BMP280;23279;46.472;30.760;2023-05-10T08:35:39;78542.69;;;-146.33
37414;BMP280;23279;46.472;30.760;2023-05-10T08:38:05;78577.28;;;-146.33
37414;BMP280;23279;46.472;30.760;2023-05-10T08:40:31;78573.22;;;-146.33
37414;BMP280;23279;46.472;30.760;2023-05-10T08:43:05;78595.59;;;-146.33
37414;BMP280;23279;46.472;30.760;2023-05-10T08:45:33;78609.84;;;-146.33
37414;BMP280;23279;46.472;30.760;2023-05-10T08:48:02;78589.50;;;-146.33
37414;BMP280;23279;46.472;30.760;2023-05-10T08:50:27;78695.34;;;-146.33
37414;BMP280;23279;46.472;30.760;2023-05-10T08:53:00;78654.63;;;-146.33
37414;BMP280;23279;46.472;30.760;2023-05-10T08:55:29;78628.16;;;-146.33
37414;BMP280;23279;46.472;30.760;2023-05-10T08:57:55;78601.72;;;-146.33
37414;BMP280;23279;46.472;30.760;2023-05-10T09:00:21;78581.34;;;-146.33
37414;BMP280;23279;46.472;30.760;2023-05-10T09:02:49;78548.78;;;-146.33
37414;BMP280;23279;46.472;30.760;2023-05-10T09:05:15;78518.25;;;-146.33
37414;BMP280;23279;46.472;30.760;2023-05-10T09:07:41;78508.09;;;-146.33
37414;BMP280;23279;46.472;30.760;2023-05-10T09:10:08;78522.34;;;-146.33
37414;BMP280;23279;46.472;30.760;2023-05-10T09:12:34;78475.53;;;-146.33
37414;BMP280;23279;46.472;30.760;2023-05-10T09:15:00;78463.31;;;-146.33
37414;BMP280;23279;46.472;30.760;2023-05-10T09:17:27;78442.97;;;-146.33
37414;BMP280;23279;46.472;30.760;2023-05-10T09:20:03;78440.94;;;-146.33
37414;BMP280;23279;46.472;30.760;2023-05-10T09:22:32;78434.81;;;-146.33
37414;BMP280;23279;46.472;30.760;2023-05-10T09:25:12;78483.66;;;-146.33
37414;BMP280;23279;46.472;30.760;2023-05-10T09:27:40;78457.22;;;-146.33
37414;BMP280;23279;46.472;30.760;2023-05-10T09:30:06;78467.38;;;-146.33
37414;BMP280;23279;46.472;30.760;2023-05-10T09:32:39;78481.63;;;-146.33
37414;BMP280;23279;46.472;30.760;2023-05-10T09:35:13;78483.66;;;-146.33
37414;BMP280;23279;46.472;30.760;2023-05-10T09:37:39;78481.63;;;-146.33
37414;BMP280;23279;46.472;30.760;2023-05-10T09:40:07;78514.19;;;-146.33
37414;BMP280;23279;46.472;30.760;2023-05-10T09:42:34;78573.22;;;-146.33
37414;BMP280;23279;46.472;30.760;2023-05-10T09:45:04;78556.94;;;-146.33
37414;BMP280;23279;46.472;30.760;2023-05-10T09:47:32;78561.00;;;-146.33
37414;BMP280;23279;46.472;30.760;2023-05-10T09:49:58;78581.34;;;-146.33
37414;BMP280;23279;46.472;30.760;2023-05-10T09:52:29;78573.22;;;-146.33
37414;BMP280;23279;46.472;30.760;2023-05-10T09:54:54;78585.44;;;-146.33
37414;BMP280;23279;46.472;30.760;2023-05-10T09:57:21;78571.19;;;-146.33
37414;BMP280;23279;46.472;30.760;2023-05-10T09:59:47;78607.81;;;-146.33
37414;BMP280;23279;46.472;30.760;2023-05-10T10:02:13;78597.63;;;-146.33
37414;BMP280;23279;46.472;30.760;2023-05-10T10:04:39;78626.13;;;-146.33
37414;BMP280;23279;46.472;30.760;2023-05-10T10:07:06;78581.34;;;-146.33
37414;BMP280;23279;46.472;30.760;2023-05-10T10:09:32;78573.22;;;-146.33
37414;BMP280;23279;46.472;30.760;2023-05-10T10:12:02;78579.31;;;-146.33
37414;BMP280;23279;46.472;30.760;2023-05-10T10:14:28;78597.63;;;-146.33
37414;BMP280;23279;46.472;30.760;2023-05-10T10:16:55;78567.13;;;-146.33
37414;BMP280;23279;46.472;30.760;2023-05-10T10:19:21;78575.25;;;-146.33
37414;BMP280;23279;46.472;30.760;2023-05-10T10:21:47;78585.44;;;-146.33
37414;BMP280;23279;46.472;30.760;2023-05-10T10:24:13;78601.72;;;-146.33
37414;BMP280;23279;46.472;30.760;2023-05-10T10:26:39;78603.75;;;-146.33
37414;BMP280;23279;46.472;30.760;2023-05-10T10:29:41;78605.78;;;-146.33
37414;BMP280;23279;46.472;30.760;2023-05-10T10:34:49;78618.00;;;-146.33
37414;BMP280;23279;46.472;30.760;2023-05-10T10:37:15;78601.72;;;-146.33
37414;BMP280;23279;46.472;30.760;2023-05-10T10:39:40;78597.63;;;-146.33
37414;BMP280;23279;46.472;30.760;2023-05-10T10:42:06;78569.16;;;-146.33
37414;BMP280;23279;46.472;30.760;2023-05-10T10:50:22;78499.94;;;-146.33
37414;BMP280;23279;46.472;30.760;2023-05-10T10:52:27;78495.88;;;-146.33
37414;BMP280;23279;46.472;30.760;2023-05-10T10:55:02;78467.38;;;-146.33
37414;BMP280;23279;46.472;30.760;2023-05-10T10:57:30;78451.09;;;-146.33
37414;BMP280;23279;46.472;30.760;2023-05-10T11:00:25;78467.38;;;-146.33
37414;BMP280;23279;46.472;30.760;2023-05-10T11:03:24;78508.09;;;-146.33
37414;BMP280;23279;46.472;30.760;2023-05-10T11:05:58;78512.16;;;-146.33
37414;BMP280;23279;46.472;30.760;2023-05-10T11:08:31;78493.84;;;-146.33
37414;BMP280;23279;46.472;30.760;2023-05-10T11:13:45;78528.44;;;-146.33
37414;BMP280;23279;46.472;30.760;2023-05-10T11:16:19;78532.50;;;-146.33
37414;BMP280;23279;46.472;30.760;2023-05-10T11:19:06;78520.31;;;-146.33
37414;BMP280;23279;46.472;30.760;2023-05-10T11:21:33;78504.03;;;-146.33
37414;BMP280;23279;46.472;30.760;2023-05-10T11:24:00;78483.66;;;-146.33
37414;BMP280;23279;46.472;30.760;2023-05-10T11:26:32;78447.03;;;-146.33
37414;BMP280;23279;46.472;30.760;2023-05-10T11:28:58;78426.69;;;-146.33
37414;BMP280;23279;46.472;30.760;2023-05-10T11:31:26;78467.38;;;-146.33
37414;BMP280;23279;46.472;30.760;2023-05-10T11:33:57;78479.59;;;-146.33
37414;BMP280;23279;46.472;30.760;2023-05-10T11:36:50;78471.44;;;-146.33
37414;BMP280;23279;46.472;30.760;2023-05-10T11:39:16;78479.59;;;-146.33
37414;BMP280;23279;46.472;30.760;2023-05-10T11:41:41;78512.16;;;-146.33
37414;BMP280;23279;46.472;30.760;2023-05-10T11:44:09;78532.50;;;-146.33
37414;BMP280;23279;46.472;30.760;2023-05-10T11:46:36;78540.66;;;-146.33
37414;BMP280;23279;46.472;30.760;2023-05-10T11:49:02;78524.38;;;-146.33
37414;BMP280;23279;46.472;30.760;2023-05-10T11:51:29;78514.19;;;-146.33
37414;BMP280;23279;46.472;30.760;2023-05-10T11:53:58;78479.59;;;-146.33
37414;BMP280;23279;46.472;30.760;2023-05-10T11:56:23;78473.50;;;-146.33
37414;BMP280;23279;46.472;30.760;2023-05-10T11:58:57;78512.16;;;-146.33
37414;BMP280;23279;46.472;30.760;2023-05-10T12:01:24;78524.38;;;-146.33
37414;BMP280;23279;46.472;30.760;2023-05-10T12:03:51;78532.50;;;-146.33
37414;BMP280;23279;46.472;30.760;2023-05-10T12:06:21;78530.47;;;-146.33
37414;BMP280;23279;46.472;30.760;2023-05-10T12:08:48;78538.63;;;-146.33
37414;BMP280;23279;46.472;30.760;2023-05-10T12:11:17;78577.28;;;-146.33
37414;BMP280;23279;46.472;30.760;2023-05-10T12:13:44;78569.16;;;-146.33
37414;BMP280;23279;46.472;30.760;2023-05-10T12:16:17;78603.75;;;-146.33
37414;BMP280;23279;46.472;30.760;2023-05-10T12:18:44;78607.81;;;-146.33
37414;BMP280;23279;46.472;30.760;2023-05-10T12:21:11;78605.78;;;-146.33
37414;BMP280;23279;46.472;30.760;2023-05-10T12:23:37;78611.88;;;-146.33
37414;BMP280;23279;46.472;30.760;2023-05-10T12:26:03;78569.16;;;-146.33
37414;BMP280;23279;46.472;30.760;2023-05-10T12:28:33;78536.59;;;-146.33
37414;BMP280;23279;46.472;30.760;2023-05-10T12:31:02;78575.25;;;-146.33
37414;BMP280;23279;46.472;30.760;2023-05-10T12:33:35;78524.38;;;-146.33
37414;BMP280;23279;46.472;30.760;2023-05-10T12:36:02;78528.44;;;-146.33
37414;BMP280;23279;46.472;30.760;2023-05-10T12:38:38;78556.94;;;-146.33
37414;BMP280;23279;46.472;30.760;2023-05-10T12:41:12;78648.53;;;-146.33
37414;BMP280;23279;46.472;30.760;2023-05-10T12:43:38;78644.47;;;-146.33
37414;BMP280;23279;46.472;30.760;2023-05-10T12:46:11;78636.31;;;-146.33
37414;BMP280;23279;46.472;30.760;2023-05-10T12:48:38;78609.84;;;-146.33
37414;BMP280;23279;46.472;30.760;2023-05-10T12:51:05;78695.34;;;-146.33
37414;BMP280;23279;46.472;30.760;2023-05-10T12:53:35;78674.97;;;-146.33
37414;BMP280;23279;46.472;30.760;2023-05-10T12:56:00;78683.13;;;-146.33
37414;BMP280;23279;46.472;30.760;2023-05-10T12:58:25;78666.84;;;-146.33
37414;BMP280;23279;46.472;30.760;2023-05-10T13:00:51;78650.56;;;-146.33
37414;BMP280;23279;46.472;30.760;2023-05-10T13:03:17;78679.06;;;-146.33
37414;BMP280;23279;46.472;30.760;2023-05-10T13:05:43;78656.66;;;-146.33
37414;BMP280;23279;46.472;30.760;2023-05-10T13:08:08;78725.88;;;-146.33
37414;BMP280;23279;46.472;30.760;2023-05-10T13:10:33;78679.06;;;-146.33
37414;BMP280;23279;46.472;30.760;2023-05-10T13:12:59;78648.53;;;-146.33
37414;BMP280;23279;46.472;30.760;2023-05-10T13:15:25;78638.34;;;-146.33
37414;BMP280;23279;46.472;30.760;2023-05-10T13:17:51;78650.56;;;-146.33
37414;BMP280;23279;46.472;30.760;2023-05-10T13:20:16;78622.06;;;-146.33
37414;BMP280;23279;46.472;30.760;2023-05-10T13:22:45;78630.22;;;-146.33
37414;BMP280;23279;46.472;30.760;2023-05-10T13:25:11;78654.63;;;-146.33
37414;BMP280;23279;46.472;30.760;2023-05-10T13:27:39;78642.41;;;-146.33
37414;BMP280;23279;46.472;30.760;2023-05-10T13:30:05;78607.81;;;-146.33
37414;BMP280;23279;46.472;30.760;2023-05-10T13:32:31;78585.44;;;-146.33
37414;BMP280;23279;46.472;30.760;2023-05-10T13:34:56;78585.44;;;-146.33
37414;BMP280;23279;46.472;30.760;2023-05-10T13:37:21;78579.31;;;-146.33
37414;BMP280;23279;46.472;30.760;2023-05-10T13:39:47;78628.16;;;-146.33
37414;BMP280;23279;46.472;30.760;2023-05-10T13:42:13;78618.00;;;-146.33
37414;BMP280;23279;46.472;30.760;2023-05-10T13:44:38;78609.84;;;-146.33
37414;BMP280;23279;46.472;30.760;2023-05-10T13:47:04;78630.22;;;-146.33
37414;BMP280;23279;46.472;30.760;2023-05-10T13:49:29;78630.22;;;-146.33
37414;BMP280;23279;46.472;30.760;2023-05-10T13:51:55;78622.06;;;-146.33
37414;BMP280;23279;46.472;30.760;2023-05-10T13:54:20;78644.47;;;-146.33
37414;BMP280;23279;46.472;30.760;2023-05-10T13:56:47;78648.53;;;-146.33
37414;BMP280;23279;46.472;30.760;2023-05-10T13:59:13;78672.94;;;-146.33
37414;BMP280;23279;46.472;30.760;2023-05-10T14:01:40;78650.56;;;-146.33
37414;BMP280;23279;46.472;30.760;2023-05-10T14:04:06;78660.75;;;-146.33